Weather reports worldwide

Advertisment
Otranto, Italy (16334): temperature & dewpoint: 03.07.2020 03:00:00 - 09.07.2020 03:00:00 (CEST)Otranto, Italy (16334): wind speed: 03.07.2020 03:00:00 - 09.07.2020 03:00:00 (CEST)Otranto, Italy (16334): wind direction: 03.07.2020 03:00:00 - 09.07.2020 03:00:00 (CEST)Otranto, Italy (16334): precipitation: 03.07.2020 03:00:00 - 09.07.2020 03:00:00 (CEST)
Date & Time tt [°C] td [°C] ff [km/h] ff [kn] dd rr [mm]
09.07.2020 03:00:00 - - - - - -
09.07.2020 02:00:00 20,1 20,0 13 7 NW 0,0
09.07.2020 01:00:00 20,0 19,8 11 6 NNW -
09.07.2020 00:00:00 20,3 19,8 13 7 NNW -
08.07.2020 23:00:00 21,5 20,1 13 7 NNW -
08.07.2020 22:00:00 21,9 20,1 11 6 N -
08.07.2020 21:00:00 22,7 20,7 15 8 N -
08.07.2020 20:00:00 24,4 22,0 22 12 N 0,0
08.07.2020 19:00:00 25,5 22,7 21 11 N -
08.07.2020 18:00:00 26,0 23,8 24 13 NNW -
08.07.2020 17:00:00 26,0 23,8 28 15 NNW -
08.07.2020 16:00:00 26,2 24,0 29 16 N -
08.07.2020 15:00:00 26,2 23,4 24 13 N -
08.07.2020 14:00:00 26,3 23,7 29 16 N 0,0
08.07.2020 13:00:00 26,2 23,6 29 16 N -
08.07.2020 12:00:00 25,7 23,1 28 15 N -
08.07.2020 11:00:00 25,6 23,2 29 16 N -
08.07.2020 10:00:00 25,7 23,3 29 16 NNE -
08.07.2020 09:00:00 24,8 22,6 28 15 N -
08.07.2020 08:00:00 24,1 22,3 28 15 N 0,0
08.07.2020 07:00:00 23,6 22,2 26 14 N -
08.07.2020 06:00:00 23,2 21,8 29 16 N -
08.07.2020 05:00:00 22,5 22,3 24 13 N -
08.07.2020 04:00:00 22,4 22,3 16 9 N -
08.07.2020 03:00:00 22,8 22,7 16 9 NNW -
08.07.2020 02:00:00 23,1 23,0 22 12 NNW 0,0
08.07.2020 01:00:00 23,2 23,1 21 11 NW -
08.07.2020 00:00:00 23,5 23,4 22 12 N -
07.07.2020 23:00:00 24,0 22,6 22 12 N -
07.07.2020 22:00:00 24,5 22,7 26 14 NNW -
07.07.2020 21:00:00 25,2 23,6 29 16 N -
07.07.2020 20:00:00 26,2 24,6 28 15 N 0,0
07.07.2020 19:00:00 27,5 25,5 31 17 N -
07.07.2020 18:00:00 28,8 25,6 31 17 N -
07.07.2020 17:00:00 29,3 26,7 29 16 N -
07.07.2020 16:00:00 29,5 27,1 28 15 N -
07.07.2020 15:00:00 30,0 27,2 28 15 N -
07.07.2020 14:00:00 29,8 27,0 26 14 N 0,0
07.07.2020 13:00:00 30,3 28,5 28 15 N -
07.07.2020 12:00:00 29,4 28,1 24 13 NNW -
07.07.2020 11:00:00 28,3 26,7 28 15 NNW -
07.07.2020 10:00:00 27,1 26,8 26 14 N -
07.07.2020 09:00:00 26,8 26,8 24 13 N -
07.07.2020 08:00:00 25,1 25,0 16 9 N 0,0
07.07.2020 07:00:00 22,9 22,8 15 8 NNW -
07.07.2020 06:00:00 22,4 22,3 15 8 NW -
07.07.2020 05:00:00 22,2 22,1 16 9 NNW -
07.07.2020 04:00:00 22,5 22,4 15 8 NNW -
07.07.2020 03:00:00 22,6 22,5 15 8 NNW -
07.07.2020 02:00:00 22,8 22,7 15 8 NW 0,0
07.07.2020 01:00:00 22,8 22,7 13 7 NNW -
07.07.2020 00:00:00 23,4 23,3 11 6 NNW -
06.07.2020 23:00:00 24,0 23,9 13 7 N -
06.07.2020 22:00:00 24,4 24,3 13 7 NNW -
06.07.2020 21:00:00 25,0 24,9 15 8 N -
06.07.2020 20:00:00 26,2 26,2 18 10 N 0,0
06.07.2020 19:00:00 27,0 25,4 24 13 N -
06.07.2020 18:00:00 28,2 25,8 24 13 N -
06.07.2020 17:00:00 27,1 24,7 15 8 N -
06.07.2020 16:00:00 26,4 25,1 21 11 NNW -
06.07.2020 15:00:00 27,7 25,1 16 9 N -
06.07.2020 14:00:00 26,8 25,5 18 10 N 0,0
06.07.2020 13:00:00 25,6 25,4 16 9 N -
06.07.2020 12:00:00 25,2 23,6 15 8 N -
06.07.2020 11:00:00 25,4 23,8 16 9 N -
06.07.2020 10:00:00 25,1 23,5 16 9 NNE -
06.07.2020 09:00:00 24,3 24,2 21 11 N -
06.07.2020 08:00:00 24,5 24,4 22 12 N 0,0
06.07.2020 07:00:00 24,2 24,1 22 12 N -
06.07.2020 06:00:00 24,0 23,9 16 9 N -
06.07.2020 05:00:00 24,0 23,9 22 12 N -
06.07.2020 04:00:00 23,5 23,4 15 8 N -
06.07.2020 03:00:00 23,6 23,5 22 12 NNW -
06.07.2020 02:00:00 23,6 23,5 15 8 N 0,0
06.07.2020 01:00:00 23,9 23,8 13 7 N -
06.07.2020 00:00:00 23,9 23,8 15 8 NNW -
05.07.2020 23:00:00 24,4 24,3 11 6 NNW -
05.07.2020 22:00:00 25,0 24,9 15 8 N -
05.07.2020 21:00:00 25,0 24,9 16 9 N -
05.07.2020 20:00:00 25,1 25,0 26 14 N 0,0
05.07.2020 19:00:00 25,4 25,3 28 15 N -
05.07.2020 18:00:00 26,0 26,0 22 12 NNW -
05.07.2020 17:00:00 27,3 25,7 21 11 NNW -
05.07.2020 16:00:00 26,5 26,5 24 13 N -
05.07.2020 15:00:00 27,1 27,1 24 13 N -
05.07.2020 14:00:00 27,4 27,2 22 12 N 0,0
05.07.2020 13:00:00 28,3 26,7 26 14 N -
05.07.2020 12:00:00 27,7 26,1 29 16 N -
05.07.2020 11:00:00 27,5 27,0 29 16 NNW -
05.07.2020 10:00:00 26,2 25,9 26 14 N -
05.07.2020 09:00:00 25,1 25,0 26 14 NNW -
05.07.2020 08:00:00 23,9 23,8 26 14 N 0,0
05.07.2020 07:00:00 22,8 22,7 22 12 N -
05.07.2020 06:00:00 22,2 22,1 18 10 NNW -
05.07.2020 05:00:00 21,9 21,8 15 8 NNW -
05.07.2020 04:00:00 21,9 21,8 16 9 NW -
05.07.2020 03:00:00 22,4 22,3 15 8 NNW -
05.07.2020 02:00:00 22,2 22,1 15 8 NNW 0,0
05.07.2020 01:00:00 23,0 22,9 13 7 NW -
05.07.2020 00:00:00 23,8 23,7 18 10 N -
04.07.2020 23:00:00 23,5 23,4 18 10 N -
04.07.2020 22:00:00 24,6 24,5 16 9 N -
04.07.2020 21:00:00 22,7 22,6 11 6 NNW -
04.07.2020 20:00:00 22,2 22,1 16 9 NNW -
04.07.2020 19:00:00 22,1 22,0 22 12 NNW -
04.07.2020 18:00:00 23,0 22,9 16 9 N -
04.07.2020 17:00:00 26,5 26,5 26 14 NNW -
04.07.2020 16:00:00 29,6 28,9 16 9 N -
04.07.2020 15:00:00 28,7 28,7 18 10 NNE -
04.07.2020 14:00:00 28,5 28,5 21 11 N 0,0
04.07.2020 13:00:00 27,8 27,8 26 14 N -
04.07.2020 12:00:00 28,6 28,6 26 14 NNE -
04.07.2020 11:00:00 29,0 29,0 22 12 N -
04.07.2020 10:00:00 28,2 28,2 24 13 N -
04.07.2020 09:00:00 27,3 27,3 22 12 NNW -
04.07.2020 08:00:00 26,3 26,3 21 11 N 0,0
04.07.2020 07:00:00 25,2 25,1 18 10 N -
04.07.2020 06:00:00 25,0 24,9 16 9 NNW -
04.07.2020 05:00:00 25,4 25,3 15 8 NNW -
04.07.2020 04:00:00 25,6 25,5 13 7 NNW -
04.07.2020 03:00:00 25,5 25,4 13 7 NNW -
04.07.2020 02:00:00 25,6 25,5 13 7 NNW 0,0
04.07.2020 01:00:00 25,7 25,7 11 6 N -
04.07.2020 00:00:00 26,0 26,0 9 5 NNW -
03.07.2020 23:00:00 26,2 26,2 11 6 N -
03.07.2020 22:00:00 26,6 26,6 11 6 NW -
03.07.2020 21:00:00 27,1 27,1 8 4 N -
03.07.2020 20:00:00 28,4 28,4 9 5 N 0,0
03.07.2020 19:00:00 29,3 29,3 15 8 N -
03.07.2020 18:00:00 29,8 29,4 13 7 N -
03.07.2020 17:00:00 30,4 29,9 16 9 NNE -
03.07.2020 16:00:00 31,1 29,3 13 7 N -
03.07.2020 15:00:00 31,4 29,2 15 8 NNW -
03.07.2020 14:00:00 31,6 29,0 15 8 NNW 0,0
03.07.2020 13:00:00 30,8 29,0 15 8 NNE -
03.07.2020 12:00:00 31,0 28,4 15 8 N -
03.07.2020 11:00:00 30,8 28,2 13 7 N -
03.07.2020 10:00:00 29,6 26,2 15 8 NNW -
03.07.2020 09:00:00 28,5 28,2 13 7 NNE -
03.07.2020 08:00:00 27,0 27,0 13 7 NNE 0,0
03.07.2020 07:00:00 25,2 25,1 8 4 NNW -
03.07.2020 06:00:00 24,6 24,5 8 4 N -
03.07.2020 05:00:00 24,5 24,4 9 5 NNW -
03.07.2020 04:00:00 24,7 24,6 8 4 N -
03.07.2020 03:00:00 25,5 25,4 5 3 N -

tt = temperature
td = dewpoint
ff = wind speed
dd = wind direction
rr = precipitation

Next stations